Time;durP1;ratioP1;P1;durP2;ratioP2;P2;SDS_P1;SDS_P2;PMS_P1;PMS_P2;Temp;Humidity;BMP_temperature;BMP_pressure;BME280_temperature;BME280_humidity;BME280_pressure;Samples;Min_cycle;Max_cycle;Signal;HPM_P1;HPM_P2
2022/03/03 00:01:43;;;;;;;3.97;2.33;;;20.70;40.80;;;;;;5038922;28;20056;-83
2022/03/03 00:04:09;;;;;;;4.90;2.40;;;22.70;41.90;;;;;;5038949;28;20053;-84
2022/03/03 00:07:00;;;;;;;4.28;2.42;;;22.40;41.90;;;;;;5039328;28;20051;-83
2022/03/03 00:10:16;;;;;;;4.60;2.15;;;20.90;41.00;;;;;;5039584;28;20063;-83
2022/03/03 00:12:58;;;;;;;5.38;2.90;;;21.30;41.50;;;;;;5008568;28;20182;-84
2022/03/03 00:15:45;;;;;;;3.92;2.30;;;21.30;41.40;;;;;;5036246;28;20053;-83
2022/03/03 00:18:28;;;;;;;5.30;2.38;;;21.20;41.20;;;;;;5038389;28;20048;-84
2022/03/03 00:21:13;;;;;;;5.65;2.78;;;21.30;41.30;;;;;;5037480;28;20048;-83
2022/03/03 00:23:56;;;;;;;5.53;2.72;;;21.40;41.70;;;;;;5038602;28;20045;-83
2022/03/03 00:26:31;;;;;;;4.78;2.70;;;19.30;40.30;;;;;;5020660;28;20059;-83
2022/03/03 00:28:58;;;;;;;4.50;2.65;;;21.70;41.80;;;;;;5036896;28;20148;-83
2022/03/03 00:31:34;;;;;;;5.05;2.60;;;21.20;41.30;;;;;;5022257;28;20045;-83
2022/03/03 00:34:12;;;;;;;4.55;2.55;;;21.20;41.30;;;;;;5022280;28;20139;-83
2022/03/03 00:37:22;;;;;;;5.18;2.40;;;22.30;42.20;;;;;;4978692;28;20053;-83
2022/03/03 00:40:32;;;;;;;4.30;2.40;;;21.50;41.50;;;;;;4979020;28;20050;-84
2022/03/03 00:43:24;;;;;;;4.45;2.33;;;20.40;41.00;;;;;;4976642;28;20182;-83
2022/03/03 00:45:49;;;;;;;3.47;2.28;;;20.50;40.90;;;;;;4978764;28;20494;-84
2022/03/03 00:48:20;;;;;;;4.07;2.55;;;20.80;41.70;;;;;;5009161;28;20060;-83
2022/03/03 00:51:29;;;;;;;4.90;2.40;;;22.10;42.00;;;;;;5037836;28;20079;-83
2022/03/03 00:57:58;;;;;;;5.57;2.55;;;21.30;41.40;;;;;;4972072;28;20435;-83
2022/03/03 01:00:58;;;;;;;6.10;2.70;;;20.70;41.40;;;;;;4957267;28;20042;-84
2022/03/03 01:03:47;;;;;;;5.18;2.72;;;22.70;42.20;;;;;;4943408;28;20039;-83
2022/03/03 01:06:21;;;;;;;5.70;2.75;;;22.40;42.10;;;;;;4942924;28;20574;-83
2022/03/03 01:08:56;;;;;;;4.93;2.47;;;21.20;41.40;;;;;;4957931;28;20047;-83
2022/03/03 01:11:32;;;;;;;4.95;2.70;;;20.90;41.30;;;;;;4956675;28;20051;-83
2022/03/03 01:14:03;;;;;;;5.10;2.30;;;21.00;41.20;;;;;;4948338;28;20051;-83
2022/03/03 01:17:41;;;;;;;4.45;2.53;;;21.00;41.30;;;;;;4957324;28;20059;-84
2022/03/03 01:20:08;;;;;;;5.35;2.00;;;20.30;40.80;;;;;;4883075;29;20056;-84
2022/03/03 01:22:37;;;;;;;3.92;2.33;;;21.20;41.30;;;;;;4897861;29;20053;-83
2022/03/03 01:28:04;;;;;;;4.28;2.65;;;21.20;41.40;;;;;;4936231;28;20054;-84
2022/03/03 01:30:36;;;;;;;4.07;2.40;;;21.20;41.70;;;;;;4972969;28;20049;-84
2022/03/03 01:33:18;;;;;;;3.95;2.20;;;21.00;41.30;;;;;;5036932;28;20048;-83
2022/03/03 01:35:44;;;;;;;3.75;2.08;;;20.80;41.10;;;;;;5019937;28;20052;-83
2022/03/03 01:38:09;;;;;;;4.93;2.42;;;21.00;41.30;;;;;;5036508;28;20420;-83
2022/03/03 01:41:25;;;;;;;4.57;2.30;;;21.00;41.30;;;;;;5037435;28;20060;-83
2022/03/03 01:43:51;;;;;;;4.95;2.88;;;21.10;41.20;;;;;;5036153;28;20139;-83
2022/03/03 01:46:25;;;;;;;5.18;2.30;;;21.10;41.50;;;;;;5035743;28;20123;-83
2022/03/03 01:49:17;;;;;;;5.45;2.50;;;20.30;41.00;;;;;;5036633;28;20103;-83
2022/03/03 01:51:44;;;;;;;3.67;2.10;;;21.20;41.30;;;;;;4998335;28;20053;-83
2022/03/03 01:57:41;;;;;;;4.28;2.25;;;20.20;41.30;;;;;;4968654;28;20624;-83
2022/03/03 02:00:13;;;;;;;4.35;2.35;;;22.10;41.90;;;;;;5018354;28;20059;-83
2022/03/03 02:02:48;;;;;;;;;;;21.20;41.70;;;;;;5036722;28;20056;-83
2022/03/03 02:05:23;;;;;;;4.32;2.38;;;21.00;41.10;;;;;;5035139;28;20011;-83
2022/03/03 02:07:48;;;;;;;4.25;2.47;;;21.10;41.20;;;;;;5035578;28;20045;-83
2022/03/03 02:10:51;;;;;;;3.85;2.45;;;21.70;41.70;;;;;;5035812;28;20044;-83
2022/03/03 02:13:44;;;;;;;3.90;2.28;;;21.30;41.20;;;;;;5019041;28;20045;-82
2022/03/03 02:20:35;;;;;;;3.75;2.10;;;20.90;41.00;;;;;;4928957;28;20054;-83
2022/03/03 02:23:09;;;;;;;4.65;2.47;;;21.20;41.20;;;;;;4971741;28;20493;-83
2022/03/03 02:25:34;;;;;;;4.45;2.30;;;21.70;41.90;;;;;;5038990;28;20161;-83
2022/03/03 02:28:00;;;;;;;4.18;2.13;;;21.30;41.40;;;;;;5039513;28;20482;-83
2022/03/03 02:30:30;;;;;;;3.65;2.25;;;21.30;41.20;;;;;;5035342;28;20061;-83
2022/03/03 02:33:02;;;;;;;5.30;2.70;;;22.10;41.80;;;;;;5036103;28;20179;-83
2022/03/03 02:35:29;;;;;;;;;;;22.40;41.90;;;;;;5035537;28;20046;-83
2022/03/03 02:38:07;;;;;;;3.92;2.13;;;21.30;41.40;;;;;;5035820;28;20541;-83
2022/03/03 02:40:33;;;;;;;3.90;2.33;;;20.10;41.30;;;;;;5035909;28;20049;-83
2022/03/03 02:43:13;;;;;;;4.25;2.08;;;21.00;41.30;;;;;;5036056;28;20055;-82
2022/03/03 02:45:39;;;;;;;4.07;2.50;;;20.40;41.20;;;;;;5035928;28;20046;-83
2022/03/03 02:48:05;;;;;;;3.47;1.85;;;22.50;41.90;;;;;;5036085;28;20045;-83
2022/03/03 02:50:54;;;;;;;3.78;2.20;;;21.50;42.00;;;;;;5037563;28;20049;-83
2022/03/03 02:53:20;;;;;;;3.72;2.15;;;22.60;41.90;;;;;;5025318;23;20076;-83
2022/03/03 02:55:54;;;;;;;3.78;2.25;;;21.30;41.40;;;;;;5019264;28;20107;-83
2022/03/03 02:58:20;;;;;;;3.75;2.08;;;22.00;41.60;;;;;;5036811;28;20061;-83
2022/03/03 03:01:08;;;;;;;4.63;2.38;;;21.40;41.20;;;;;;4994974;28;20451;-83
2022/03/03 03:04:08;;;;;;;4.07;2.47;;;21.40;41.60;;;;;;5000249;28;20105;-83
2022/03/03 03:06:39;;;;;;;4.75;2.47;;;21.20;41.10;;;;;;5019742;28;20037;-83
2022/03/03 03:09:05;;;;;;;4.30;2.20;;;21.30;41.40;;;;;;5002734;28;20132;-83
2022/03/03 03:12:09;;;;;;;4.43;2.70;;;21.30;41.20;;;;;;5018797;28;20472;-81
2022/03/03 03:14:57;;;;;;;4.85;2.45;;;21.20;41.10;;;;;;5018907;28;20096;-81
2022/03/03 03:17:26;;;;;;;4.10;2.45;;;20.90;41.10;;;;;;5019314;28;20052;-83
2022/03/03 03:20:00;;;;;;;4.10;2.20;;;21.40;41.80;;;;;;5019168;28;20088;-83
2022/03/03 03:26:09;;;;;;;4.30;2.28;;;21.40;41.50;;;;;;4952357;28;20077;-83
2022/03/03 03:29:25;;;;;;;3.92;2.17;;;20.70;40.90;;;;;;5019713;28;20828;-83
2022/03/03 03:32:43;;;;;;;3.58;2.35;;;21.30;41.20;;;;;;5019279;28;20065;-83
2022/03/03 03:35:09;;;;;;;4.53;2.63;;;20.50;40.60;;;;;;5019249;28;20053;-83
2022/03/03 03:37:38;;;;;;;4.30;2.40;;;21.40;41.20;;;;;;5018451;28;20136;-82
2022/03/03 03:40:05;;;;;;;3.85;2.30;;;21.40;41.20;;;;;;5017306;28;20041;-83
2022/03/03 03:42:42;;;;;;;4.10;2.10;;;21.40;41.20;;;;;;5018211;28;20061;-84
2022/03/03 03:45:09;;;;;;;3.92;2.40;;;21.70;41.30;;;;;;5016829;28;20041;-83
2022/03/03 03:50:51;;;;;;;3.85;2.20;;;21.40;41.50;;;;;;5019252;28;20060;-83
2022/03/03 03:53:29;;;;;;;4.10;2.20;;;22.50;42.50;;;;;;5020998;28;20057;-84
2022/03/03 03:56:13;;;;;;;3.45;1.85;;;21.30;41.20;;;;;;5033850;28;20061;-81
2022/03/03 03:58:39;;;;;;;3.97;2.35;;;21.40;41.20;;;;;;5022086;28;20064;-81
2022/03/03 04:01:05;;;;;;;3.92;2.10;;;21.40;41.20;;;;;;5057307;22;20057;-81
2022/03/03 04:03:30;;;;;;;3.47;2.08;;;22.60;41.80;;;;;;5018611;28;20090;-80
2022/03/03 04:06:06;;;;;;;;;;;;;;;;;;;;;
2022/03/03 04:09:00;;;;;;;3.28;2.05;;;21.40;41.10;;;;;;5485873;22;20546;-81
2022/03/03 04:11:29;;;;;;;3.50;2.00;;;21.40;41.10;;;;;;5016820;28;20045;-80
2022/03/03 04:14:11;;;;;;;3.92;2.10;;;21.40;41.10;;;;;;5016651;28;20144;-81
2022/03/03 04:16:42;;;;;;;5.18;2.38;;;21.40;41.10;;;;;;5018266;28;20054;-82
2022/03/03 04:19:20;;;;;;;3.83;1.95;;;21.60;41.30;;;;;;5016862;28;20057;-81
2022/03/03 04:21:46;;;;;;;5.22;2.30;;;22.10;41.80;;;;;;5001175;28;20037;-82
2022/03/03 04:24:27;;;;;;;4.47;2.33;;;22.70;41.90;;;;;;5018516;28;20049;-81
2022/03/03 04:27:25;;;;;;;4.43;2.30;;;21.40;41.50;;;;;;4934743;29;20054;-83
2022/03/03 04:29:54;;;;;;;3.92;2.30;;;22.60;42.10;;;;;;4935474;29;20059;-82
2022/03/03 04:32:20;;;;;;;3.33;1.90;;;21.60;41.70;;;;;;4918995;29;20059;-82
2022/03/03 04:34:49;;;;;;;3.75;2.33;;;21.40;41.20;;;;;;4919190;29;20138;-82
2022/03/03 04:37:30;;;;;;;3.88;2.30;;;22.40;41.70;;;;;;4919230;29;20060;-81
2022/03/03 04:40:17;;;;;;;3.25;2.08;;;22.80;42.60;;;;;;4922250;29;20561;-82
2022/03/03 04:42:50;;;;;;;4.82;2.30;;;21.10;40.90;;;;;;4944767;28;20111;-81
2022/03/03 04:45:26;;;;;;;3.42;1.98;;;21.40;41.00;;;;;;5017141;28;20045;-80
2022/03/03 04:48:00;;;;;;;4.20;2.25;;;21.40;41.00;;;;;;5015288;28;20048;-81
2022/03/03 04:50:27;;;;;;;3.45;2.15;;;22.70;42.00;;;;;;5015956;28;20075;-81
2022/03/03 04:53:00;;;;;;;4.15;2.17;;;21.40;41.00;;;;;;5015558;28;20103;-81
2022/03/03 04:55:48;;;;;;;3.38;1.90;;;21.20;41.00;;;;;;5016734;28;20053;-80
2022/03/03 04:58:26;;;;;;;4.35;2.47;;;21.40;41.30;;;;;;4999457;28;20558;-81
2022/03/03 05:01:14;;;;;;;3.78;2.03;;;21.40;41.20;;;;;;5016177;28;20050;-81
2022/03/03 05:04:35;;;;;;;4.00;2.35;;;21.20;41.00;;;;;;5032892;28;20049;-80
2022/03/03 05:07:04;;;;;;;3.75;2.13;;;21.10;41.10;;;;;;4989191;28;20053;-81
2022/03/03 05:09:30;;;;;;;4.05;2.33;;;21.20;40.90;;;;;;5038330;28;20067;-81
2022/03/03 05:12:14;;;;;;;3.13;1.90;;;21.30;41.20;;;;;;5054747;28;20095;-80
2022/03/03 05:14:41;;;;;;;4.20;2.10;;;21.10;40.80;;;;;;5686650;22;20016;-81
2022/03/03 05:17:47;;;;;;;4.05;2.20;;;20.40;41.00;;;;;;5029677;28;20049;-81
2022/03/03 05:21:02;;;;;;;3.35;1.90;;;21.50;41.00;;;;;;4975546;28;20054;-81
2022/03/03 05:23:36;;;;;;;4.40;2.42;;;21.40;41.00;;;;;;4958644;28;20070;-81
2022/03/03 05:26:05;;;;;;;3.92;2.35;;;21.40;41.20;;;;;;4975198;28;20565;-81
2022/03/03 05:35:44;;;;;;;3.83;2.20;;;21.40;41.00;;;;;;4917609;29;20050;-81
2022/03/03 05:42:12;;;;;;;3.47;2.17;;;21.40;41.00;;;;;;4975241;28;20049;-81
2022/03/03 05:44:50;;;;;;;3.75;1.80;;;21.00;40.90;;;;;;4975182;28;20061;-81
2022/03/03 05:47:47;;;;;;;3.30;1.80;;;21.20;41.00;;;;;;4976117;28;20597;-82
2022/03/03 05:51:31;;;;;;;5.05;2.45;;;20.60;40.70;;;;;;4899148;29;20147;-82
2022/03/03 05:55:04;;;;;;;3.00;1.73;;;20.60;40.70;;;;;;4976257;22;20086;-82
2022/03/03 05:58:34;;;;;;;3.33;2.10;;;20.70;40.60;;;;;;5052898;28;20048;-81
2022/03/03 06:01:02;;;;;;;3.40;2.10;;;21.20;40.90;;;;;;5059567;28;20064;-81
2022/03/03 06:03:30;;;;;;;3.45;2.13;;;21.50;41.10;;;;;;5059486;28;20136;-81
2022/03/03 06:06:07;;;;;;;3.40;1.90;;;22.00;41.30;;;;;;5059934;28;20084;-81
2022/03/03 06:09:17;;;;;;;3.60;2.10;;;21.60;41.00;;;;;;5060210;28;20056;-81
2022/03/03 06:11:49;;;;;;;3.78;2.03;;;21.60;41.00;;;;;;5060651;28;20044;-82
2022/03/03 06:14:23;;;;;;;4.68;1.88;;;21.50;41.00;;;;;;5060033;28;20093;-82
2022/03/03 06:16:49;;;;;;;3.50;2.20;;;21.60;41.10;;;;;;5044073;28;20119;-81
2022/03/03 06:19:20;;;;;;;4.05;1.92;;;21.60;41.10;;;;;;5026169;28;20468;-81
2022/03/03 06:21:46;;;;;;;2.90;1.75;;;21.60;41.00;;;;;;5042984;28;20048;-81
2022/03/03 06:24:22;;;;;;;4.22;2.25;;;21.60;41.00;;;;;;5059873;28;20131;-82
2022/03/03 06:26:48;;;;;;;3.60;1.90;;;21.60;41.00;;;;;;5077807;28;20047;-81
2022/03/03 06:29:17;;;;;;;3.85;1.98;;;21.60;41.00;;;;;;5059873;28;20049;-81
2022/03/03 06:31:43;;;;;;;3.67;1.92;;;21.60;41.00;;;;;;5055222;28;20103;-81
2022/03/03 06:34:10;;;;;;;3.55;1.85;;;21.60;41.00;;;;;;5022711;28;20049;-81
2022/03/03 06:36:36;;;;;;;3.80;2.38;;;21.60;41.00;;;;;;5038900;28;20056;-81
2022/03/03 06:39:02;;;;;;;3.53;2.00;;;21.60;41.70;;;;;;5040079;28;20084;-81
2022/03/03 06:41:51;;;;;;;2.92;1.75;;;21.60;41.00;;;;;;5038118;28;20091;-80
2022/03/03 06:44:35;;;;;;;3.75;1.60;;;22.70;41.50;;;;;;5176286;22;20041;-81
2022/03/03 06:47:34;;;;;;;;;;;20.50;40.60;;;;;;5018088;28;20590;-80
2022/03/03 06:57:11;;;;;;;3.50;1.70;;;20.50;40.60;;;;;;4981098;28;20048;-81
2022/03/03 07:03:22;;;;;;;2.47;1.42;;;20.90;40.60;;;;;;5007740;28;20057;-81
2022/03/03 07:06:01;;;;;;;3.47;1.80;;;21.70;41.30;;;;;;5017906;28;20053;-81
2022/03/03 07:09:27;;;;;;;;;;;;;;;;;;;;;
2022/03/03 07:11:53;;;;;;;3.33;2.05;;;21.80;41.00;;;;;;4988054;28;20100;-80
2022/03/03 07:14:19;;;;;;;2.95;1.60;;;21.80;41.10;;;;;;5001630;28;20041;-82
2022/03/03 07:37:41;;;;;;;3.92;2.08;;;21.90;40.80;;;;;;5035519;28;20078;-83
2022/03/03 07:40:10;;;;;;;3.85;1.95;;;22.00;40.80;;;;;;5033934;28;20081;-82
2022/03/03 07:46:21;;;;;;;3.30;1.85;;;21.90;40.80;;;;;;5460140;22;20080;-82
2022/03/03 07:55:45;;;;;;;3.60;1.92;;;21.00;40.30;;;;;;5057531;28;20083;-82
2022/03/03 07:58:35;;;;;;;;;;;21.90;40.80;;;;;;5051444;28;20064;-81
2022/03/03 08:01:06;;;;;;;3.40;2.00;;;21.40;40.40;;;;;;5058065;28;19916;-82
2022/03/03 08:04:22;;;;;;;4.97;2.45;;;22.70;41.30;;;;;;5025123;28;20043;-82
2022/03/03 08:07:29;;;;;;;3.83;2.08;;;22.00;40.70;;;;;;5055680;28;20055;-83
2022/03/03 08:10:46;;;;;;;3.45;1.85;;;21.90;40.70;;;;;;5056920;28;20102;-83
2022/03/03 08:13:32;;;;;;;3.70;2.10;;;21.00;40.20;;;;;;5051973;28;20506;-82
2022/03/03 08:16:18;;;;;;;4.18;2.10;;;23.30;42.30;;;;;;5003293;28;20056;-82
2022/03/03 08:23:01;;;;;;;4.32;2.20;;;21.00;40.20;;;;;;5005760;28;20062;-82
2022/03/03 08:29:48;;;;;;;3.83;2.00;;;21.50;40.50;;;;;;5026313;28;20091;-82
2022/03/03 08:32:54;;;;;;;3.70;1.85;;;21.90;40.70;;;;;;5001093;28;20107;-82
2022/03/03 08:35:23;;;;;;;3.50;2.10;;;21.90;40.80;;;;;;5001863;28;20461;-80
2022/03/03 08:38:26;;;;;;;4.20;2.13;;;21.90;41.10;;;;;;4952671;28;20062;-81
2022/03/03 08:41:10;;;;;;;6.72;3.33;;;21.10;40.20;;;;;;4965174;28;20154;-75
2022/03/03 08:56:03;;;;;;;8.32;4.43;;;21.60;39.50;;;;;;5706676;22;20075;-79
2022/03/03 08:58:29;;;;;;;7.60;4.13;;;21.60;39.60;;;;;;5027608;28;20493;-80
2022/03/03 09:00:54;;;;;;;10.77;3.95;;;21.60;39.80;;;;;;5032462;28;20147;-71
2022/03/03 09:03:22;;;;;;;11.77;4.20;;;21.60;40.00;;;;;;5049463;28;20051;-82
2022/03/03 09:06:01;;;;;;;;;;;;;;;;;;;;;
2022/03/03 09:19:23;;;;;;;9.88;4.40;;;21.20;39.60;;;;;;5057451;28;20043;-83
2022/03/03 09:22:45;;;;;;;6.68;4.32;;;21.40;40.00;;;;;;5033800;28;20041;-83
2022/03/03 09:25:39;;;;;;;6.70;3.57;;;21.40;39.70;;;;;;5058159;28;20044;-83
2022/03/03 09:30:39;;;;;;;7.78;3.42;;;21.30;40.40;;;;;;5073207;22;20100;-84
2022/03/03 09:35:38;;;;;;;5.78;3.55;;;21.30;39.70;;;;;;5043099;28;20053;-84
2022/03/03 09:38:16;;;;;;;5.55;3.58;;;21.30;40.60;;;;;;5034189;28;20053;-85
2022/03/03 09:41:00;;;;;;;5.50;3.60;;;22.70;40.80;;;;;;5037245;28;20080;-84
2022/03/03 09:46:04;;;;;;;6.30;4.10;;;21.70;39.90;;;;;;5321953;22;20058;-83
2022/03/03 09:48:36;;;;;;;9.25;4.32;;;21.30;40.10;;;;;;5039635;28;20489;-81
2022/03/03 09:51:02;;;;;;;7.85;4.35;;;21.30;40.40;;;;;;5030120;28;20061;-79
2022/03/03 09:53:44;;;;;;;7.20;5.13;;;21.30;40.10;;;;;;5026738;28;20045;-79
2022/03/03 09:57:05;;;;;;;8.55;5.10;;;21.70;40.40;;;;;;5002937;28;20053;-80
2022/03/03 10:02:07;;;;;;;9.35;5.10;;;21.40;39.50;;;;;;5653917;22;20127;-80
2022/03/03 10:04:33;;;;;;;7.93;5.20;;;21.40;39.50;;;;;;5007090;28;20049;-79
2022/03/03 10:07:11;;;;;;;8.52;4.95;;;22.50;40.00;;;;;;5009472;28;20049;-80
2022/03/03 10:09:59;;;;;;;11.48;5.60;;;21.40;39.40;;;;;;4999750;28;20468;-78
2022/03/03 10:12:33;;;;;;;7.82;5.47;;;21.40;39.50;;;;;;5011795;28;20519;-80
2022/03/03 10:15:05;;;;;;;7.00;4.60;;;21.50;39.50;;;;;;5016455;28;20058;-79
2022/03/03 10:17:35;;;;;;;9.80;6.10;;;21.50;39.40;;;;;;4992843;28;20108;-78
2022/03/03 10:20:02;;;;;;;8.15;4.70;;;22.80;40.00;;;;;;4997919;28;20068;-79
2022/03/03 10:22:47;;;;;;;8.75;4.68;;;21.50;39.30;;;;;;5028666;28;20504;-81
2022/03/03 10:27:49;;;;;;;6.95;5.00;;;21.50;39.20;;;;;;2907155;22;20512;-81
2022/03/03 10:30:18;;;;;;;9.27;5.88;;;21.50;39.30;;;;;;4995627;28;20073;-80
2022/03/03 10:40:45;;;;;;;9.02;4.80;;;21.60;39.30;;;;;;5029109;28;20483;-80
2022/03/03 10:46:30;;;;;;;12.43;6.32;;;21.20;39.00;;;;;;4982343;28;20494;-81
2022/03/03 10:56:30;;;;;;;9.38;4.95;;;21.30;39.10;;;;;;5115813;22;20143;-82
2022/03/03 11:06:44;;;;;;;12.30;5.10;;;22.10;39.40;;;;;;5048365;28;20069;-86
2022/03/03 11:16:54;;;;;;;7.70;4.45;;;21.80;39.20;;;;;;4973722;28;20081;-85
2022/03/03 11:19:44;;;;;;;7.50;4.18;;;20.90;38.70;;;;;;4944600;28;20057;-85
2022/03/03 11:22:20;;;;;;;5.97;3.70;;;21.90;39.10;;;;;;4941977;28;20139;-85
2022/03/03 11:24:56;;;;;;;7.38;3.67;;;20.10;38.50;;;;;;4943466;28;20085;-86
2022/03/03 11:28:07;;;;;;;7.57;3.72;;;21.20;38.80;;;;;;4939330;28;20066;-85
2022/03/03 11:30:46;;;;;;;;;;;;;;;;;;;;;
2022/03/03 11:43:26;;;;;;;7.32;3.40;;;22.00;38.80;;;;;;5102171;22;20045;-88
2022/03/03 11:50:51;;;;;;;7.13;3.10;;;22.80;39.20;;;;;;5024316;28;20401;-86
2022/03/03 11:53:26;;;;;;;7.75;3.30;;;22.20;38.90;;;;;;5021830;28;20049;-84
2022/03/03 11:59:17;;;;;;;6.35;3.53;;;21.80;38.60;;;;;;5351181;23;20096;-85
2022/03/03 12:02:02;;;;;;;6.22;2.80;;;22.10;39.30;;;;;;5018508;28;20076;-86
2022/03/03 12:04:30;;;;;;;5.05;2.78;;;22.10;38.80;;;;;;5018491;28;20136;-79
2022/03/03 12:07:41;;;;;;;7.20;3.30;;;21.50;38.30;;;;;;5018697;28;20053;-86
2022/03/03 12:14:11;;;;;;;4.97;2.88;;;22.20;38.70;;;;;;4998174;28;20367;-85
2022/03/03 12:17:14;;;;;;;4.60;2.20;;;21.70;38.40;;;;;;4957610;28;20445;-85
2022/03/03 12:19:40;;;;;;;6.05;2.92;;;21.90;38.50;;;;;;4917218;29;20567;-85
2022/03/03 12:26:29;;;;;;;5.28;2.90;;;21.30;38.10;;;;;;4944700;28;20042;-86
2022/03/03 12:28:57;;;;;;;5.47;2.63;;;22.10;38.50;;;;;;4955918;28;20055;-87
2022/03/03 12:31:51;;;;;;;5.22;2.75;;;22.30;38.90;;;;;;4925958;28;20112;-86
2022/03/03 12:34:35;;;;;;;5.85;2.95;;;22.30;38.70;;;;;;4931855;28;20054;-86
2022/03/03 12:37:08;;;;;;;4.82;2.38;;;22.30;39.20;;;;;;4947274;28;20181;-85
2022/03/03 12:40:07;;;;;;;5.93;2.92;;;23.70;39.40;;;;;;4961888;28;20046;-85
2022/03/03 12:42:38;;;;;;;4.47;2.30;;;22.40;38.60;;;;;;4975830;28;20058;-87
2022/03/03 12:45:30;;;;;;;4.70;2.50;;;22.30;38.60;;;;;;4989177;28;20537;-86
2022/03/03 12:48:07;;;;;;;4.70;2.67;;;22.40;38.60;;;;;;4969858;28;20050;-86
2022/03/03 12:51:19;;;;;;;;;;;;;;;;;;;;;
2022/03/03 12:54:06;;;;;;;6.03;2.72;;;21.70;38.10;;;;;;5035950;28;20492;-85
2022/03/03 13:01:07;;;;;;;8.10;5.00;;;22.20;37.10;;;;;;5051833;28;20117;-84
2022/03/03 13:04:26;;;;;;;5.50;3.50;;;21.30;36.10;;;;;;4994211;28;20530;-84
2022/03/03 13:07:13;;;;;;;6.05;3.58;;;22.50;37.10;;;;;;4923044;29;20051;-84
2022/03/03 13:10:16;;;;;;;5.07;3.20;;;21.90;37.40;;;;;;4918638;29;20059;-78
2022/03/03 13:12:44;;;;;;;4.75;2.92;;;21.80;37.30;;;;;;4880373;29;20059;-86
2022/03/03 13:15:13;;;;;;;4.82;2.80;;;21.70;37.50;;;;;;4900918;29;20096;-80
2022/03/03 13:18:08;;;;;;;4.55;2.60;;;21.70;37.60;;;;;;4941969;28;20060;-85
2022/03/03 13:21:02;;;;;;;4.82;2.40;;;21.60;37.70;;;;;;5021196;23;20043;-85
2022/03/03 13:34:02;;;;;;;4.60;2.28;;;21.70;39.10;;;;;;4952130;28;20052;-85
2022/03/03 13:36:38;;;;;;;3.78;2.20;;;21.90;38.70;;;;;;4921549;29;20132;-84
2022/03/03 13:39:21;;;;;;;4.05;2.13;;;22.00;38.90;;;;;;4977882;28;20410;-84
2022/03/03 13:41:47;;;;;;;3.90;2.08;;;21.40;38.60;;;;;;4996439;28;20417;-85
2022/03/03 13:52:15;;;;;;;4.00;1.90;;;21.30;38.90;;;;;;5858115;23;20061;-84
2022/03/03 13:55:01;;;;;;;4.07;2.10;;;21.30;39.00;;;;;;5022909;28;20037;-84
2022/03/03 13:57:47;;;;;;;3.65;1.90;;;21.30;39.10;;;;;;5023027;28;20064;-85
2022/03/03 14:00:49;;;;;;;8.38;2.97;;;21.30;39.30;;;;;;5034158;28;20080;-84
2022/03/03 14:03:17;;;;;;;7.22;3.60;;;21.20;38.90;;;;;;5030160;28;20087;-83
2022/03/03 14:05:53;;;;;;;6.30;3.57;;;21.30;38.20;;;;;;5051097;28;20488;-85
2022/03/03 14:15:07;;;;;;;5.72;2.97;;;21.30;38.90;;;;;;5232155;23;20046;-80
2022/03/03 14:17:57;;;;;;;5.70;3.50;;;21.30;38.60;;;;;;5008241;28;20512;-78
2022/03/03 14:20:38;;;;;;;7.75;3.53;;;20.20;38.00;;;;;;4993108;28;20056;-80
2022/03/03 14:23:04;;;;;;;7.90;4.22;;;22.10;39.50;;;;;;5029994;28;20056;-79
2022/03/03 14:25:45;;;;;;;5.65;3.42;;;22.30;39.30;;;;;;5004942;28;20042;-80
2022/03/03 14:28:34;;;;;;;7.00;3.30;;;19.40;37.90;;;;;;5373748;23;20072;-79
2022/03/03 14:31:22;;;;;;;8.25;3.70;;;21.30;38.80;;;;;;4987152;28;20521;-80
2022/03/03 14:34:09;;;;;;;5.88;3.35;;;21.30;39.30;;;;;;4951447;29;20051;-80
2022/03/03 14:37:05;;;;;;;8.68;3.88;;;21.80;39.40;;;;;;4936778;29;20069;-79
2022/03/03 14:39:31;;;;;;;16.05;5.70;;;21.50;39.00;;;;;;5006415;28;20067;-77
2022/03/03 14:42:03;;;;;;;15.55;6.32;;;21.20;39.20;;;;;;5051998;28;20045;-76
2022/03/03 14:45:00;;;;;;;25.40;9.77;;;21.40;39.30;;;;;;5051723;28;20059;-77
2022/03/03 14:47:42;;;;;;;19.30;8.15;;;22.10;39.50;;;;;;5042871;28;20539;-78
2022/03/03 14:50:13;;;;;;;15.85;6.90;;;21.40;39.60;;;;;;5034167;28;20052;-78
2022/03/03 14:52:41;;;;;;;16.40;7.60;;;21.40;38.90;;;;;;5007870;28;20120;-78
2022/03/03 14:55:09;;;;;;;13.68;6.72;;;21.40;39.00;;;;;;5003880;28;20053;-78
2022/03/03 14:57:35;;;;;;;14.90;7.30;;;21.30;39.00;;;;;;5011983;28;20049;-78
2022/03/03 15:00:34;;;;;;;16.30;6.68;;;22.00;39.40;;;;;;5011243;28;20057;-83
2022/03/03 15:10:18;;;;;;;11.80;5.60;;;20.60;38.60;;;;;;5992696;22;20376;-83
2022/03/03 15:12:47;;;;;;;13.75;6.13;;;21.30;38.90;;;;;;5014522;28;20096;-83
2022/03/03 15:15:27;;;;;;;12.90;5.70;;;21.30;38.60;;;;;;5017696;28;20045;-83
2022/03/03 15:22:01;;;;;;;12.80;5.53;;;21.00;37.50;;;;;;5015591;28;20066;-82
2022/03/03 15:25:23;;;;;;;11.95;5.10;;;21.40;38.00;;;;;;5008806;28;20087;-83
2022/03/03 15:28:38;;;;;;;11.20;5.30;;;21.40;38.10;;;;;;5036047;28;20382;-83
2022/03/03 15:31:22;;;;;;;11.98;5.50;;;21.30;37.80;;;;;;5017420;28;20045;-81
2022/03/03 15:38:13;;;;;;;12.13;6.05;;;20.70;36.90;;;;;;4996180;28;20049;-84
2022/03/03 15:44:31;;;;;;;9.70;6.13;;;21.50;36.90;;;;;;4972341;28;20057;-84
2022/03/03 15:48:00;;;;;;;;;;;;;;;;;;;;;
2022/03/03 15:50:59;;;;;;;6.63;3.67;;;21.30;36.50;;;;;;4957558;28;20065;-85
2022/03/03 15:56:54;;;;;;;6.40;3.28;;;21.60;37.90;;;;;;5933487;22;19915;-85
2022/03/03 15:59:40;;;;;;;6.63;3.13;;;22.90;38.90;;;;;;5022540;28;20079;-86
2022/03/03 16:02:59;;;;;;;6.72;2.90;;;21.80;38.70;;;;;;5019354;28;20045;-86
2022/03/03 16:06:04;;;;;;;5.82;2.88;;;22.50;38.60;;;;;;5033014;28;20172;-85
2022/03/03 16:08:32;;;;;;;5.65;2.60;;;21.90;38.30;;;;;;4976419;28;20050;-84
2022/03/03 16:11:14;;;;;;;6.20;2.45;;;22.20;38.70;;;;;;4976231;28;20063;-83
2022/03/03 16:14:03;;;;;;;4.65;2.03;;;22.10;38.70;;;;;;4976946;28;20096;-84
2022/03/03 16:20:26;;;;;;;5.07;2.03;;;22.10;38.50;;;;;;4934850;29;20123;-84
2022/03/03 16:26:27;;;;;;;4.95;2.08;;;21.70;38.20;;;;;;4913464;29;20481;-83
2022/03/03 16:28:53;;;;;;;4.68;2.20;;;22.90;39.30;;;;;;4919949;29;20069;-84
2022/03/03 16:32:02;;;;;;;4.90;2.00;;;22.30;38.80;;;;;;4891653;29;20114;-84
2022/03/03 16:34:29;;;;;;;3.45;1.70;;;22.40;38.60;;;;;;4900417;29;20332;-84
2022/03/03 16:37:14;;;;;;;4.38;1.80;;;23.10;39.10;;;;;;4912697;29;20067;-84
2022/03/03 16:47:26;;;;;;;4.78;2.20;;;23.30;39.00;;;;;;4993401;28;20045;-85
2022/03/03 16:56:32;;;;;;;3.65;1.60;;;22.50;38.60;;;;;;6074223;23;20028;-84
2022/03/03 16:59:22;;;;;;;3.42;1.63;;;22.30;38.50;;;;;;5032566;28;20045;-84
2022/03/03 17:02:18;;;;;;;3.95;1.63;;;22.60;38.60;;;;;;5035671;28;20131;-85
2022/03/03 17:05:32;;;;;;;4.63;1.70;;;22.00;38.30;;;;;;5036201;28;20047;-85
2022/03/03 17:08:29;;;;;;;4.90;1.80;;;22.50;38.60;;;;;;5009828;28;20037;-85
2022/03/03 17:11:28;;;;;;;4.53;1.80;;;22.60;39.40;;;;;;4994462;28;20563;-85
2022/03/03 17:13:59;;;;;;;3.63;1.73;;;22.60;38.60;;;;;;5039117;28;20052;-84
2022/03/03 17:22:41;;;;;;;3.53;1.67;;;22.60;38.60;;;;;;5656086;22;20056;-86
2022/03/03 17:25:10;;;;;;;4.03;1.85;;;22.80;38.60;;;;;;5035365;28;20049;-84
2022/03/03 17:27:48;;;;;;;3.60;1.70;;;22.60;38.50;;;;;;5030531;28;20094;-83
2022/03/03 17:30:14;;;;;;;4.75;1.80;;;22.70;38.60;;;;;;5009257;28;20045;-82
2022/03/03 17:32:40;;;;;;;4.20;2.10;;;23.70;39.10;;;;;;5026905;28;20558;-83
2022/03/03 17:35:12;;;;;;;4.85;1.98;;;22.60;38.50;;;;;;5023614;28;20045;-82
2022/03/03 17:37:41;;;;;;;3.78;2.00;;;22.60;38.50;;;;;;5027164;28;21056;-82
2022/03/03 17:44:03;;;;;;;4.07;1.98;;;22.60;38.50;;;;;;4948393;28;20085;-85
2022/03/03 17:46:37;;;;;;;4.13;2.28;;;22.60;38.60;;;;;;4921279;29;20169;-85
2022/03/03 17:49:17;;;;;;;3.30;1.65;;;23.00;38.70;;;;;;5002557;28;20056;-86
2022/03/03 17:52:27;;;;;;;4.15;2.20;;;21.70;38.20;;;;;;5007852;28;20429;-86
2022/03/03 17:54:55;;;;;;;4.38;1.98;;;24.00;39.20;;;;;;4931198;29;20098;-85
2022/03/03 18:03:45;;;;;;;4.03;1.92;;;22.70;38.50;;;;;;5072958;22;20061;-84
2022/03/03 18:06:39;;;;;;;3.63;1.75;;;22.60;38.50;;;;;;5052169;28;20132;-82
2022/03/03 18:09:11;;;;;;;4.13;2.10;;;22.70;38.50;;;;;;5013489;28;20552;-85
2022/03/03 18:11:39;;;;;;;4.35;2.25;;;22.70;38.50;;;;;;5026466;28;20045;-85
2022/03/03 18:14:06;;;;;;;3.03;1.80;;;22.70;38.50;;;;;;5021879;28;20057;-84
2022/03/03 18:16:50;;;;;;;4.25;2.25;;;22.60;38.40;;;;;;4995486;28;20201;-84
2022/03/03 18:19:25;;;;;;;3.90;2.00;;;22.60;38.50;;;;;;4972974;28;20050;-83
2022/03/03 18:21:53;;;;;;;4.72;2.08;;;23.50;39.00;;;;;;4978555;28;20046;-83
2022/03/03 18:24:20;;;;;;;4.03;2.25;;;22.60;38.40;;;;;;4982407;28;20058;-83
2022/03/03 18:27:01;;;;;;;5.75;2.25;;;21.10;38.20;;;;;;4985705;28;20054;-85
2022/03/03 18:30:43;;;;;;;3.63;2.10;;;22.60;37.90;;;;;;4979656;28;20132;-83
2022/03/03 18:33:19;;;;;;;48.08;18.67;;;22.50;37.80;;;;;;4915374;29;20083;-82